createdAt,value
2018-12-03T00:01:52.226Z,12.40
2018-12-03T00:04:26.618Z,12.40
2018-12-03T00:07:00.812Z,12.30
2018-12-03T00:09:35.314Z,12.10
2018-12-03T00:12:09.735Z,12.00
2018-12-03T00:14:43.963Z,11.90
2018-12-03T00:17:18.294Z,11.90
2018-12-03T00:19:52.586Z,11.90
2018-12-03T00:22:26.817Z,11.90
2018-12-03T00:25:01.124Z,11.80
2018-12-03T00:27:35.598Z,11.70
2018-12-03T00:30:10.228Z,11.70
2018-12-03T00:32:44.542Z,11.70
2018-12-03T00:35:18.766Z,11.90
2018-12-03T00:37:53.088Z,12.00
2018-12-03T00:40:27.322Z,12.00
2018-12-03T00:43:01.512Z,11.90
2018-12-03T00:45:35.828Z,12.00
2018-12-03T00:48:10.026Z,11.90
2018-12-03T00:50:44.248Z,12.00
2018-12-03T00:53:18.479Z,12.00
2018-12-03T00:55:52.788Z,11.90
2018-12-03T00:58:27.076Z,12.00
2018-12-03T01:01:01.299Z,12.00
2018-12-03T01:03:35.632Z,11.90
2018-12-03T01:06:09.833Z,11.90
2018-12-03T01:08:44.061Z,11.90
2018-12-03T01:11:18.389Z,12.00
2018-12-03T01:13:52.700Z,12.00
2018-12-03T01:16:26.961Z,11.90
2018-12-03T01:19:01.297Z,12.00
2018-12-03T01:21:35.660Z,12.00
2018-12-03T01:24:09.870Z,12.00
2018-12-03T01:26:44.103Z,12.00
2018-12-03T01:29:18.445Z,12.00
2018-12-03T01:31:53.353Z,12.00
2018-12-03T01:34:27.660Z,12.10
2018-12-03T01:37:01.877Z,12.10
2018-12-03T01:39:36.144Z,12.00
2018-12-03T01:42:10.518Z,12.00
2018-12-03T01:44:44.861Z,12.00
2018-12-03T01:47:19.058Z,12.10
2018-12-03T01:49:53.259Z,12.10
2018-12-03T01:52:27.533Z,12.10
2018-12-03T01:55:01.871Z,12.00
2018-12-03T01:57:36.232Z,12.00
2018-12-03T02:00:13.224Z,12.10
2018-12-03T02:02:47.581Z,12.10
2018-12-03T02:05:21.804Z,12.10
2018-12-03T02:07:56.108Z,12.10
2018-12-03T02:10:30.316Z,12.20
2018-12-03T02:13:04.881Z,12.20
2018-12-03T02:15:39.092Z,12.20
2018-12-03T02:18:13.315Z,12.10
2018-12-03T02:20:47.560Z,12.30
2018-12-03T02:23:21.940Z,12.20
2018-12-03T02:25:56.277Z,12.30
2018-12-03T02:28:30.484Z,12.30
2018-12-03T02:31:05.183Z,12.20
2018-12-03T02:33:39.521Z,12.20
2018-12-03T02:36:13.838Z,12.10
2018-12-03T02:38:48.090Z,12.10
2018-12-03T02:41:22.304Z,12.10
2018-12-03T02:43:56.496Z,12.00
2018-12-03T02:46:30.713Z,12.00
2018-12-03T02:49:05.563Z,12.10
2018-12-03T02:51:39.834Z,12.00
2018-12-03T02:54:14.038Z,12.00
2018-12-03T02:56:48.238Z,12.00
2018-12-03T02:59:22.534Z,12.00
2018-12-03T03:01:56.897Z,12.10
2018-12-03T03:04:31.140Z,12.00
2018-12-03T03:07:05.483Z,12.00
2018-12-03T03:09:39.842Z,12.10
2018-12-03T03:12:14.038Z,12.20
2018-12-03T03:14:48.240Z,12.30
2018-12-03T03:17:22.552Z,12.30
2018-12-03T03:19:56.785Z,12.30
2018-12-03T03:22:31.233Z,12.40
2018-12-03T03:25:06.069Z,12.30
2018-12-03T03:27:40.432Z,12.30
2018-12-03T03:30:15.126Z,12.30
2018-12-03T03:32:49.529Z,12.20
2018-12-03T03:35:23.802Z,12.40
2018-12-03T03:37:58.117Z,12.30
2018-12-03T03:40:32.355Z,12.30
2018-12-03T03:43:06.858Z,12.30
2018-12-03T03:45:41.276Z,12.30
2018-12-03T03:48:15.685Z,12.40
2018-12-03T03:50:49.933Z,12.40
2018-12-03T03:53:24.227Z,12.50
2018-12-03T03:55:58.650Z,12.50
2018-12-03T03:58:33.401Z,12.40
2018-12-03T04:01:07.769Z,12.40
2018-12-03T04:03:42.171Z,12.40
2018-12-03T04:06:16.615Z,12.30
2018-12-03T04:08:51.103Z,12.30
2018-12-03T04:11:25.353Z,12.20
2018-12-03T04:13:59.576Z,12.30
2018-12-03T04:16:33.943Z,12.30
2018-12-03T04:19:08.181Z,12.30
2018-12-03T04:21:42.570Z,12.20
2018-12-03T04:24:16.777Z,12.20
2018-12-03T04:26:51.118Z,12.10
2018-12-03T04:29:25.487Z,12.00
2018-12-03T04:31:59.688Z,11.90
2018-12-03T04:34:34.012Z,11.90
2018-12-03T04:37:08.202Z,11.80
2018-12-03T04:39:42.404Z,11.80
2018-12-03T04:42:16.575Z,11.70
2018-12-03T04:44:50.926Z,11.80
2018-12-03T04:47:25.161Z,11.70
2018-12-03T04:49:59.537Z,11.80
2018-12-03T04:52:33.940Z,11.80
2018-12-03T04:55:08.378Z,11.70
2018-12-03T04:57:42.693Z,11.60
2018-12-03T05:00:18.077Z,11.60
2018-12-03T05:02:53.006Z,11.60
2018-12-03T05:05:27.389Z,11.70
2018-12-03T05:08:01.579Z,11.70
2018-12-03T05:10:35.946Z,11.70
2018-12-03T05:13:10.136Z,11.90
2018-12-03T05:15:44.458Z,11.90
2018-12-03T05:18:18.864Z,12.00
2018-12-03T05:20:53.274Z,12.20
2018-12-03T05:23:27.493Z,12.20
2018-12-03T05:26:01.670Z,12.20
2018-12-03T05:28:35.866Z,12.20
2018-12-03T05:31:10.163Z,12.20
2018-12-03T05:33:45.568Z,12.20
2018-12-03T05:36:19.905Z,12.30
2018-12-03T05:38:54.252Z,12.20
2018-12-03T05:41:28.496Z,12.20
2018-12-03T05:44:02.944Z,12.20
2018-12-03T05:46:37.287Z,12.30
2018-12-03T05:49:11.653Z,12.40
2018-12-03T05:51:45.927Z,12.50
2018-12-03T05:54:20.212Z,12.50
2018-12-03T05:56:54.476Z,12.50
2018-12-03T05:59:29.489Z,12.60
2018-12-03T06:02:04.490Z,12.70
2018-12-03T06:04:38.859Z,12.70
2018-12-03T06:07:13.126Z,12.60
2018-12-03T06:09:47.645Z,12.70
2018-12-03T06:12:21.854Z,12.70
2018-12-03T06:14:56.178Z,12.70
2018-12-03T06:17:30.662Z,12.70
2018-12-03T06:20:06.955Z,12.70
2018-12-03T06:22:41.156Z,12.60
2018-12-03T06:25:18.986Z,12.60
2018-12-03T06:27:53.192Z,12.50
2018-12-03T06:30:27.955Z,12.50
2018-12-03T06:33:02.288Z,12.40
2018-12-03T06:35:36.677Z,12.50
2018-12-03T06:38:15.293Z,12.50
2018-12-03T06:40:45.273Z,12.50
2018-12-03T06:43:19.632Z,12.50
2018-12-03T06:45:53.906Z,12.40
2018-12-03T06:48:28.308Z,12.40
2018-12-03T06:51:02.705Z,12.40
2018-12-03T06:53:37.048Z,12.30
2018-12-03T06:56:11.380Z,12.30
2018-12-03T06:58:45.729Z,12.30
2018-12-03T07:01:20.138Z,12.30
2018-12-03T07:03:54.493Z,12.20
2018-12-03T07:06:28.910Z,12.30
2018-12-03T07:09:03.168Z,12.30
2018-12-03T07:11:37.651Z,12.30
2018-12-03T07:14:12.015Z,12.30
2018-12-03T07:16:46.411Z,12.30
2018-12-03T07:19:20.732Z,12.30
2018-12-03T07:21:55.008Z,12.30
2018-12-03T07:24:29.364Z,12.40
2018-12-03T07:27:04.028Z,12.40
2018-12-03T07:29:38.759Z,12.40
2018-12-03T07:32:13.365Z,12.50
2018-12-03T07:34:47.923Z,12.60
2018-12-03T07:37:22.581Z,12.60
2018-12-03T07:39:56.963Z,12.60
2018-12-03T07:42:31.563Z,12.60
2018-12-03T07:45:09.819Z,12.70
2018-12-03T07:47:44.394Z,12.70
2018-12-03T07:50:21.452Z,12.70
2018-12-03T07:52:55.895Z,12.50
2018-12-03T07:55:31.184Z,12.20
2018-12-03T07:58:09.589Z,12.10
2018-12-03T08:00:46.546Z,12.10
2018-12-03T08:03:20.929Z,12.00
2018-12-03T08:05:55.667Z,12.10
2018-12-03T08:08:30.453Z,12.10
2018-12-03T08:11:05.055Z,12.10
2018-12-03T08:13:39.554Z,12.30
2018-12-03T08:16:14.033Z,12.50
2018-12-03T08:18:48.426Z,12.60
2018-12-03T08:21:23.192Z,12.80
2018-12-03T08:24:01.230Z,12.80
2018-12-03T08:26:36.069Z,13.10
2018-12-03T08:29:10.576Z,13.20
2018-12-03T08:31:45.254Z,13.10
2018-12-03T08:34:19.634Z,13.00
2018-12-03T08:36:54.302Z,12.90
2018-12-03T08:39:29.090Z,12.90
2018-12-03T08:42:03.486Z,12.90
2018-12-03T08:44:38.071Z,12.90
2018-12-03T08:47:13.434Z,12.80
2018-12-03T08:49:48.065Z,12.80
2018-12-03T08:52:23.531Z,12.80
2018-12-03T08:54:58.000Z,12.90
2018-12-03T08:57:32.326Z,13.10
2018-12-03T09:00:10.714Z,13.20
2018-12-03T09:03:02.103Z,13.20
2018-12-03T09:05:39.950Z,13.30
2018-12-03T09:08:14.482Z,13.50
2018-12-03T09:10:49.395Z,13.50
2018-12-03T09:13:25.485Z,13.50
2018-12-03T09:16:01.791Z,13.70
2018-12-03T09:18:39.518Z,14.10
2018-12-03T09:21:16.294Z,14.40
2018-12-03T09:23:51.244Z,14.30
2018-12-03T09:26:25.675Z,14.60
2018-12-03T09:29:00.177Z,14.70
2018-12-03T09:31:34.696Z,14.60
2018-12-03T09:34:09.439Z,14.60
2018-12-03T09:36:44.079Z,14.50
2018-12-03T09:39:18.695Z,14.40
2018-12-03T09:41:53.109Z,14.30
2018-12-03T09:44:27.509Z,14.30
2018-12-03T09:47:02.019Z,14.30
2018-12-03T09:49:36.554Z,14.30
2018-12-03T09:52:12.045Z,14.20
2018-12-03T09:54:46.531Z,14.10
2018-12-03T09:57:21.360Z,14.00
2018-12-03T09:59:55.889Z,14.00
2018-12-03T10:02:30.573Z,13.80
2018-12-03T10:05:06.070Z,13.60
2018-12-03T10:07:40.741Z,13.50
2018-12-03T10:10:17.313Z,13.50
2018-12-03T10:16:29.308Z,13.50
2018-12-03T10:19:15.782Z,13.60
2018-12-03T10:21:50.435Z,13.70
2018-12-03T10:24:24.818Z,13.90
2018-12-03T10:27:03.887Z,14.00
2018-12-03T10:29:38.305Z,14.20
2018-12-03T10:32:16.501Z,14.30
2018-12-03T10:34:50.748Z,14.40
2018-12-03T10:37:24.995Z,14.40
2018-12-03T10:39:59.345Z,14.50
2018-12-03T10:42:33.742Z,14.60
2018-12-03T10:45:12.022Z,14.70
2018-12-03T10:47:46.568Z,14.80
2018-12-03T10:50:22.375Z,14.90
2018-12-03T10:52:56.970Z,15.00
2018-12-03T10:55:31.629Z,15.00
2018-12-03T10:58:06.447Z,15.00
2018-12-03T11:00:46.388Z,15.00
2018-12-03T11:05:27.138Z,15.00
2018-12-03T11:08:01.548Z,14.90
2018-12-03T11:10:38.438Z,14.90
2018-12-03T11:13:12.890Z,14.90
2018-12-03T11:15:47.291Z,14.90
2018-12-03T11:18:21.951Z,14.90
2018-12-03T11:21:02.296Z,14.90
2018-12-03T11:23:36.875Z,15.00
2018-12-03T11:26:11.305Z,14.90
2018-12-03T11:28:51.191Z,15.00
2018-12-03T11:31:27.944Z,15.00
2018-12-03T11:34:02.500Z,15.00
2018-12-03T11:36:42.334Z,15.00
2018-12-03T11:39:56.108Z,14.90
2018-12-03T11:42:34.294Z,14.90
2018-12-03T11:45:10.401Z,14.90
2018-12-03T11:47:44.865Z,15.00
2018-12-03T11:50:19.466Z,14.90
2018-12-03T11:52:53.827Z,14.90
2018-12-03T11:55:28.205Z,14.90
2018-12-03T11:58:02.685Z,15.00
2018-12-03T12:00:36.930Z,14.90
2018-12-03T12:03:11.327Z,14.90
2018-12-03T12:05:45.688Z,14.90
2018-12-03T12:08:20.451Z,15.00
2018-12-03T12:10:54.793Z,15.00
2018-12-03T12:13:29.123Z,14.90
2018-12-03T12:16:03.366Z,14.90
2018-12-03T12:18:37.628Z,14.90
2018-12-03T12:21:11.954Z,14.90
2018-12-03T12:23:46.350Z,14.90
2018-12-03T12:26:20.650Z,14.80
2018-12-03T12:28:54.942Z,14.80
2018-12-03T12:31:29.310Z,14.90
2018-12-03T12:34:03.789Z,14.80
2018-12-03T12:36:38.046Z,14.90
2018-12-03T12:39:12.450Z,14.90
2018-12-03T12:41:49.813Z,14.90
2018-12-03T12:44:24.175Z,15.10
2018-12-03T12:46:58.572Z,15.10
2018-12-03T12:49:32.938Z,15.00
2018-12-03T12:52:07.677Z,15.00
2018-12-03T12:54:42.103Z,15.00
2018-12-03T12:57:16.331Z,14.90
2018-12-03T12:59:50.615Z,14.90
2018-12-03T13:02:24.888Z,14.90
2018-12-03T13:04:59.261Z,15.00
2018-12-03T13:07:33.650Z,14.90
2018-12-03T13:10:10.656Z,14.90
2018-12-03T13:12:47.376Z,14.80
2018-12-03T13:15:21.730Z,14.80
2018-12-03T13:17:56.224Z,14.60
2018-12-03T13:20:31.568Z,14.30
2018-12-03T13:23:06.366Z,14.20
2018-12-03T13:25:40.638Z,13.90
2018-12-03T13:28:15.294Z,13.80
2018-12-03T13:30:49.595Z,13.70
2018-12-03T13:33:23.869Z,13.80
2018-12-03T13:35:58.281Z,13.80
2018-12-03T13:38:32.706Z,13.90
2018-12-03T13:41:07.466Z,13.90
2018-12-03T13:43:41.807Z,14.00
2018-12-03T13:46:16.199Z,14.00
2018-12-03T13:48:50.399Z,14.00
2018-12-03T13:51:27.831Z,14.00
2018-12-03T13:54:02.124Z,14.10
2018-12-03T13:56:36.642Z,14.10
2018-12-03T13:59:10.864Z,14.10
2018-12-03T14:01:45.098Z,13.90
2018-12-03T14:04:21.452Z,14.00
2018-12-03T14:07:05.519Z,13.90
2018-12-03T14:09:55.286Z,14.00
2018-12-03T14:12:36.702Z,14.10
2018-12-03T14:15:31.174Z,14.10
2018-12-03T14:18:26.052Z,14.10
2018-12-03T14:21:11.911Z,14.10
2018-12-03T14:23:48.186Z,14.20
2018-12-03T14:26:22.521Z,14.20
2018-12-03T14:28:57.026Z,14.30
2018-12-03T14:31:31.356Z,14.40
2018-12-03T14:34:05.766Z,14.40
2018-12-03T14:36:40.161Z,14.50
2018-12-03T14:39:14.383Z,14.30
2018-12-03T14:41:48.765Z,14.40
2018-12-03T14:44:22.982Z,14.50
2018-12-03T14:46:57.396Z,14.30
2018-12-03T14:49:31.638Z,14.20
2018-12-03T14:52:05.951Z,14.10
2018-12-03T14:54:40.180Z,14.10
2018-12-03T14:57:14.539Z,14.00
2018-12-03T14:59:48.836Z,13.90
2018-12-03T15:02:23.302Z,13.90
2018-12-03T15:04:57.675Z,13.80
2018-12-03T15:07:31.924Z,13.80
2018-12-03T15:10:08.042Z,13.70
2018-12-03T15:12:42.391Z,13.60
2018-12-03T15:15:16.817Z,13.50
2018-12-03T15:17:51.112Z,13.60
2018-12-03T15:20:25.577Z,13.70
2018-12-03T15:22:59.820Z,13.60
2018-12-03T15:25:34.046Z,13.60
2018-12-03T15:28:08.376Z,13.50
2018-12-03T15:30:42.947Z,13.50
2018-12-03T15:33:17.270Z,13.50
2018-12-03T15:35:51.716Z,13.50
2018-12-03T15:38:25.965Z,13.40
2018-12-03T15:41:00.281Z,13.40
2018-12-03T15:43:34.798Z,13.40
2018-12-03T15:46:09.301Z,13.30
2018-12-03T15:48:43.726Z,13.30
2018-12-03T15:51:18.149Z,13.30
2018-12-03T15:53:52.527Z,13.30
2018-12-03T15:56:26.767Z,13.20
2018-12-03T15:59:01.160Z,13.20
2018-12-03T16:01:35.586Z,13.10
2018-12-03T16:04:09.803Z,13.20
2018-12-03T16:06:44.073Z,13.10
2018-12-03T16:09:18.450Z,13.20
2018-12-03T16:11:53.529Z,13.20
2018-12-03T16:14:27.870Z,13.20
2018-12-03T16:17:02.204Z,13.20
2018-12-03T16:19:36.434Z,13.30
2018-12-03T16:22:10.811Z,13.20
2018-12-03T16:24:45.130Z,13.10
2018-12-03T16:27:19.483Z,13.00
2018-12-03T16:29:54.924Z,12.80
2018-12-03T16:32:29.269Z,12.70
2018-12-03T16:35:03.996Z,12.60
2018-12-03T16:37:38.438Z,12.40
2018-12-03T16:40:12.972Z,12.30
2018-12-03T16:42:47.215Z,12.30
2018-12-03T16:45:21.730Z,12.20
2018-12-03T16:47:56.001Z,12.10
2018-12-03T16:50:30.459Z,12.10
2018-12-03T16:53:06.514Z,12.10
2018-12-03T16:55:40.823Z,12.10
2018-12-03T16:58:15.366Z,12.10
2018-12-03T17:00:49.716Z,12.00
2018-12-03T17:03:25.606Z,11.90
2018-12-03T17:06:07.174Z,11.90
2018-12-03T17:08:41.492Z,11.90
2018-12-03T17:11:15.970Z,11.90
2018-12-03T17:13:50.349Z,11.90
2018-12-03T17:16:25.180Z,11.90
2018-12-03T17:18:59.575Z,11.80
2018-12-03T17:21:42.847Z,11.80
2018-12-03T17:24:21.933Z,11.70
2018-12-03T17:26:56.416Z,11.70
2018-12-03T17:29:31.006Z,11.70
2018-12-03T17:32:05.409Z,11.70
2018-12-03T17:34:39.891Z,11.70
2018-12-03T17:37:14.664Z,11.60
2018-12-03T17:39:51.628Z,11.60
2018-12-03T17:42:43.015Z,11.70
2018-12-03T17:45:17.507Z,11.60
2018-12-03T17:47:51.720Z,11.60
2018-12-03T17:50:26.003Z,11.60
2018-12-03T17:53:00.224Z,11.70
2018-12-03T17:55:34.551Z,11.70
2018-12-03T17:58:08.801Z,11.80
2018-12-03T18:00:42.992Z,11.90
2018-12-03T18:03:17.286Z,11.90
2018-12-03T18:05:51.504Z,12.00
2018-12-03T18:08:26.450Z,12.00
2018-12-03T18:11:00.885Z,12.00
2018-12-03T18:13:35.144Z,11.90
2018-12-03T18:16:09.657Z,12.00
2018-12-03T18:18:43.950Z,11.90
2018-12-03T18:21:18.265Z,11.90
2018-12-03T18:23:52.661Z,12.00
2018-12-03T18:26:27.000Z,12.10
2018-12-03T18:29:01.311Z,12.00
2018-12-03T18:31:35.883Z,12.20
2018-12-03T18:34:10.477Z,12.20
2018-12-03T18:36:44.724Z,12.20
2018-12-03T18:39:18.993Z,12.40
2018-12-03T18:41:53.229Z,12.50
2018-12-03T18:44:27.558Z,12.50
2018-12-03T18:47:01.909Z,12.50
2018-12-03T18:49:39.000Z,12.60
2018-12-03T18:52:14.472Z,12.50
2018-12-03T18:54:49.303Z,12.40
2018-12-03T18:57:25.196Z,12.30
2018-12-03T18:59:59.387Z,12.30
2018-12-03T19:02:33.739Z,12.20
2018-12-03T19:05:08.190Z,12.30
2018-12-03T19:07:42.439Z,12.20
2018-12-03T19:10:16.767Z,12.20
2018-12-03T19:12:51.018Z,12.10
2018-12-03T19:15:25.316Z,12.00
2018-12-03T19:17:59.670Z,11.90
2018-12-03T19:20:33.948Z,11.90
2018-12-03T19:23:08.217Z,12.00
2018-12-03T19:25:42.604Z,11.90
2018-12-03T19:28:17.186Z,11.90
2018-12-03T19:30:51.585Z,11.90
2018-12-03T19:33:25.835Z,12.00
2018-12-03T19:36:00.318Z,11.90
2018-12-03T19:38:34.684Z,12.00
2018-12-03T19:41:08.897Z,12.00
2018-12-03T19:43:43.126Z,12.00
2018-12-03T19:46:17.438Z,12.00
2018-12-03T19:48:51.800Z,11.90
2018-12-03T19:51:26.119Z,11.90
2018-12-03T19:54:01.070Z,11.90
2018-12-03T19:56:41.499Z,12.00
2018-12-03T19:59:19.302Z,12.10
2018-12-03T20:01:57.722Z,12.00
2018-12-03T20:04:55.791Z,12.10
2018-12-03T20:07:31.968Z,11.90
2018-12-03T20:10:09.611Z,11.90
2018-12-03T20:12:45.517Z,11.90
2018-12-03T20:15:22.392Z,11.90
2018-12-03T20:17:59.174Z,12.00
2018-12-03T20:20:47.112Z,12.10
2018-12-03T20:24:00.760Z,11.90
2018-12-03T20:26:41.103Z,11.90
2018-12-03T20:29:26.256Z,11.90
2018-12-03T20:33:09.809Z,12.00
2018-12-03T20:40:04.921Z,12.00
2018-12-03T20:42:41.996Z,12.00
2018-12-03T20:47:25.951Z,11.90
2018-12-03T20:51:16.331Z,11.80
2018-12-03T20:53:50.674Z,11.80
2018-12-03T20:56:25.119Z,11.70
2018-12-03T20:58:59.460Z,11.50
2018-12-03T21:01:36.622Z,11.20
2018-12-03T21:04:10.997Z,11.10
2018-12-03T21:09:24.307Z,11.10
2018-12-03T21:11:59.468Z,11.00
2018-12-03T21:14:33.745Z,11.00
2018-12-03T21:17:09.181Z,11.00
2018-12-03T21:19:44.696Z,10.90
2018-12-03T21:22:19.057Z,10.90
2018-12-03T21:24:53.344Z,10.80
2018-12-03T21:27:27.785Z,10.90
2018-12-03T21:30:02.744Z,10.80
2018-12-03T21:32:37.235Z,10.90
2018-12-03T21:35:11.489Z,11.00
2018-12-03T21:37:46.116Z,11.00
2018-12-03T21:40:20.448Z,10.90
2018-12-03T21:42:55.097Z,11.00
2018-12-03T21:45:29.617Z,11.00
2018-12-03T21:48:06.997Z,11.00
2018-12-03T21:50:41.193Z,10.90
2018-12-03T21:53:15.546Z,11.00
2018-12-03T21:55:50.082Z,11.00
2018-12-03T21:58:24.523Z,11.10
2018-12-03T22:00:58.917Z,11.10
2018-12-03T22:03:37.366Z,11.10
2018-12-03T22:06:15.482Z,11.00
2018-12-03T22:08:49.819Z,10.80
2018-12-03T22:11:24.375Z,10.70
2018-12-03T22:13:58.786Z,10.80
2018-12-03T22:16:33.123Z,10.70
2018-12-03T22:19:07.366Z,10.60
2018-12-03T22:21:41.718Z,10.70
2018-12-03T22:24:16.265Z,10.70
2018-12-03T22:26:50.554Z,10.60
2018-12-03T22:29:24.800Z,10.60
2018-12-03T22:31:59.235Z,10.60
2018-12-03T22:34:33.628Z,10.60
2018-12-03T22:37:08.057Z,10.50
2018-12-03T22:39:46.351Z,10.60
2018-12-03T22:42:18.562Z,10.50
2018-12-03T22:44:54.060Z,10.50
2018-12-03T22:47:28.519Z,10.50
2018-12-03T22:50:03.002Z,10.50
2018-12-03T22:52:37.266Z,10.40
2018-12-03T22:55:11.674Z,10.40
2018-12-03T22:57:45.848Z,10.30
2018-12-03T23:00:26.056Z,10.30
2018-12-03T23:03:00.268Z,10.50
2018-12-03T23:05:34.507Z,10.50
2018-12-03T23:08:08.964Z,10.40
2018-12-03T23:10:43.330Z,10.20
2018-12-03T23:13:17.813Z,10.40
2018-12-03T23:15:52.230Z,10.30
2018-12-03T23:18:27.513Z,10.40
2018-12-03T23:21:01.892Z,10.40
2018-12-03T23:23:36.132Z,10.40
2018-12-03T23:26:10.366Z,10.40
2018-12-03T23:28:44.608Z,10.40
2018-12-03T23:31:19.083Z,10.40
2018-12-03T23:33:53.291Z,10.30
2018-12-03T23:36:27.542Z,10.30
2018-12-03T23:39:01.890Z,10.30
2018-12-03T23:41:36.495Z,10.30
2018-12-03T23:44:10.832Z,10.30
2018-12-03T23:46:45.195Z,10.30
2018-12-03T23:49:19.585Z,10.20
2018-12-03T23:51:54.070Z,10.30
2018-12-03T23:54:28.333Z,10.30
2018-12-03T23:57:02.550Z,10.40
2018-12-03T23:59:36.907Z,10.40
